Araijuku, Japan

7:57 PM JST on January 21, 2017 (GMT +0900)
Chemin de Pacoty | | Change Station

Elev 22 ft 35.57 °N, 139.71 °E | Updated 1 minute ago

Clear
Clear
46.9 °F
Feels Like 47 °F
N
0.0
Wind Variable Wind from North
Gusts 0.6 mph

Today
High -- | Low -- °F
--% Chance of Precip.
Yesterday
High -- | Low -- °F
Precip. -- in
Pressure 30.12 in
Visibility 6.2 miles
Clouds Few 6000 ft
Windchill 47 °F
Dew Point 23 °F
Humidity 39%
Rainfall Not available.
Snow Depth Not available.
6:47 AM 4:57 PM
Waning Crescent, 36% visible
METAR RJTT 211030Z 36014KT 9999 FEW060 07/M07 Q1020 NOSIG RMK 1SC060 A3014
Pressure 30.12 in
Visibility 6.2 miles
Clouds Few 6000 ft
Windchill 47 °F
Dew Point 23 °F
Humidity 39%
Rainfall Not available.
Snow Depth Not available.
6:47 AM 4:57 PM
Waning Crescent, 36% visible
METAR RJTT 211030Z 36014KT 9999 FEW060 07/M07 Q1020 NOSIG RMK 1SC060 A3014

Get Your Daily Forecast Email!

Thanks for signing up!

Be on the lookout for a verification email in your inbox.

You'll start receiving the daily forecast at 8 AM.

×

10-Day Weather Forecast

No radar image for this location.
×

Almanac

Astronomy

Jan. 21, 2017 Rise Set
Actual Time
Civil Twilight
Nautical Twilight
Astronomical Twilight
Moon
Length of Visible Light
Length of Day
Tomorrow will be .
, % of the Moon is Illuminated

Today's Extremes

Country Highs Country Lows

Community

WunderPhotos

Upload Photos

1,962,540 photos uploaded!

WunderBlog® & News

Nearby

Air Quality

  Air Quality AQ Index Pollutant
Not available.

Snow Depth

Station Depth Elevation

Earthquake Activity

City Distance Mag. Time & Date
Minimum magnitude displayed is 2.5.

Coastal Water Temperatures

Place Temperature

Stations

Nearby Weather Stations

Station Location Temp. Windchill Dew Point Humidity Wind Precip. Elev Updated Type